sensor_id;sensor_type;location;lat;lon;timestamp;P1;durP1;ratioP1;P2;durP2;ratioP2
870;SDS011;422;51.280;7.236;2022-07-09T00:01:31;7.40;;;5.60;;
870;SDS011;422;51.280;7.236;2022-07-09T00:03:59;6.90;;;5.83;;
870;SDS011;422;51.280;7.236;2022-07-09T00:06:27;6.83;;;6.13;;
870;SDS011;422;51.280;7.236;2022-07-09T00:08:57;6.83;;;6.13;;
870;SDS011;422;51.280;7.236;2022-07-09T00:11:25;5.97;;;5.37;;
870;SDS011;422;51.280;7.236;2022-07-09T00:13:53;6.70;;;6.00;;
870;SDS011;422;51.280;7.236;2022-07-09T00:16:24;7.93;;;5.70;;
870;SDS011;422;51.280;7.236;2022-07-09T00:19:02;7.20;;;5.60;;
870;SDS011;422;51.280;7.236;2022-07-09T00:21:31;6.87;;;5.87;;
870;SDS011;422;51.280;7.236;2022-07-09T00:24:02;6.27;;;5.67;;
870;SDS011;422;51.280;7.236;2022-07-09T00:26:32;6.77;;;5.23;;
870;SDS011;422;51.280;7.236;2022-07-09T00:28:59;7.27;;;5.80;;
870;SDS011;422;51.280;7.236;2022-07-09T00:31:26;7.03;;;6.07;;
870;SDS011;422;51.280;7.236;2022-07-09T00:33:53;6.37;;;5.77;;
870;SDS011;422;51.280;7.236;2022-07-09T00:36:21;8.13;;;6.47;;
870;SDS011;422;51.280;7.236;2022-07-09T00:38:50;8.57;;;6.50;;
870;SDS011;422;51.280;7.236;2022-07-09T00:41:17;6.17;;;5.57;;
870;SDS011;422;51.280;7.236;2022-07-09T00:43:45;5.83;;;5.33;;
870;SDS011;422;51.280;7.236;2022-07-09T00:46:17;6.93;;;6.27;;
870;SDS011;422;51.280;7.236;2022-07-09T00:48:50;6.97;;;6.27;;
870;SDS011;422;51.280;7.236;2022-07-09T00:51:17;7.60;;;6.00;;
870;SDS011;422;51.280;7.236;2022-07-09T00:53:46;6.53;;;6.00;;
870;SDS011;422;51.280;7.236;2022-07-09T00:56:16;6.70;;;6.00;;
870;SDS011;422;51.280;7.236;2022-07-09T00:58:47;7.90;;;6.80;;
870;SDS011;422;51.280;7.236;2022-07-09T01:01:14;6.77;;;6.17;;
870;SDS011;422;51.280;7.236;2022-07-09T01:03:42;6.77;;;6.10;;
870;SDS011;422;51.280;7.236;2022-07-09T01:06:09;6.90;;;5.50;;
870;SDS011;422;51.280;7.236;2022-07-09T01:08:41;6.33;;;5.70;;
870;SDS011;422;51.280;7.236;2022-07-09T01:11:10;7.50;;;6.10;;
870;SDS011;422;51.280;7.236;2022-07-09T01:13:40;6.40;;;5.90;;
870;SDS011;422;51.280;7.236;2022-07-09T01:16:17;7.60;;;6.90;;
870;SDS011;422;51.280;7.236;2022-07-09T01:18:47;7.50;;;6.80;;
870;SDS011;422;51.280;7.236;2022-07-09T01:21:17;9.53;;;6.13;;
870;SDS011;422;51.280;7.236;2022-07-09T01:23:45;6.27;;;5.77;;
870;SDS011;422;51.280;7.236;2022-07-09T01:26:12;7.50;;;6.63;;
870;SDS011;422;51.280;7.236;2022-07-09T01:28:45;8.97;;;6.40;;
870;SDS011;422;51.280;7.236;2022-07-09T01:31:12;8.33;;;6.90;;
870;SDS011;422;51.280;7.236;2022-07-09T01:33:39;7.77;;;6.90;;
870;SDS011;422;51.280;7.236;2022-07-09T01:36:09;6.47;;;5.87;;
870;SDS011;422;51.280;7.236;2022-07-09T01:38:38;6.27;;;5.70;;
870;SDS011;422;51.280;7.236;2022-07-09T01:41:05;7.63;;;6.93;;
870;SDS011;422;51.280;7.236;2022-07-09T01:43:32;7.90;;;6.87;;
870;SDS011;422;51.280;7.236;2022-07-09T01:46:01;7.90;;;7.10;;
870;SDS011;422;51.280;7.236;2022-07-09T01:48:34;8.53;;;7.70;;
870;SDS011;422;51.280;7.236;2022-07-09T01:51:01;7.87;;;6.87;;
870;SDS011;422;51.280;7.236;2022-07-09T01:53:29;10.63;;;6.67;;
870;SDS011;422;51.280;7.236;2022-07-09T01:56:00;7.10;;;6.33;;
870;SDS011;422;51.280;7.236;2022-07-09T01:58:33;7.70;;;7.00;;
870;SDS011;422;51.280;7.236;2022-07-09T02:01:00;7.97;;;6.40;;
870;SDS011;422;51.280;7.236;2022-07-09T02:03:31;8.30;;;7.10;;
870;SDS011;422;51.280;7.236;2022-07-09T02:06:04;11.40;;;7.40;;
870;SDS011;422;51.280;7.236;2022-07-09T02:08:32;7.07;;;6.47;;
870;SDS011;422;51.280;7.236;2022-07-09T02:11:00;8.27;;;6.47;;
870;SDS011;422;51.280;7.236;2022-07-09T02:13:28;8.07;;;7.20;;
870;SDS011;422;51.280;7.236;2022-07-09T02:15:56;8.47;;;6.97;;
870;SDS011;422;51.280;7.236;2022-07-09T02:18:25;8.57;;;6.67;;
870;SDS011;422;51.280;7.236;2022-07-09T02:20:52;8.10;;;7.40;;
870;SDS011;422;51.280;7.236;2022-07-09T02:23:22;8.23;;;6.13;;
870;SDS011;422;51.280;7.236;2022-07-09T02:25:50;7.43;;;6.63;;
870;SDS011;422;51.280;7.236;2022-07-09T02:28:18;6.70;;;6.10;;
870;SDS011;422;51.280;7.236;2022-07-09T02:30:48;7.93;;;7.03;;
870;SDS011;422;51.280;7.236;2022-07-09T02:33:15;7.80;;;6.77;;
870;SDS011;422;51.280;7.236;2022-07-09T02:35:43;7.40;;;6.50;;
870;SDS011;422;51.280;7.236;2022-07-09T02:38:10;6.43;;;5.83;;
870;SDS011;422;51.280;7.236;2022-07-09T02:40:40;7.63;;;6.90;;
870;SDS011;422;51.280;7.236;2022-07-09T02:43:07;7.70;;;6.87;;
870;SDS011;422;51.280;7.236;2022-07-09T02:45:41;9.30;;;6.50;;
870;SDS011;422;51.280;7.236;2022-07-09T02:48:10;10.13;;;6.30;;
870;SDS011;422;51.280;7.236;2022-07-09T02:50:38;6.90;;;6.30;;
870;SDS011;422;51.280;7.236;2022-07-09T02:53:05;7.87;;;6.50;;
870;SDS011;422;51.280;7.236;2022-07-09T02:55:32;6.13;;;5.43;;
870;SDS011;422;51.280;7.236;2022-07-09T02:57:59;7.37;;;6.67;;
870;SDS011;422;51.280;7.236;2022-07-09T03:00:27;7.63;;;6.33;;
870;SDS011;422;51.280;7.236;2022-07-09T03:02:56;8.50;;;5.97;;
870;SDS011;422;51.280;7.236;2022-07-09T03:05:23;9.60;;;6.80;;
870;SDS011;422;51.280;7.236;2022-07-09T03:07:52;7.87;;;7.17;;
870;SDS011;422;51.280;7.236;2022-07-09T03:10:19;12.33;;;6.40;;
870;SDS011;422;51.280;7.236;2022-07-09T03:12:47;9.33;;;7.67;;
870;SDS011;422;51.280;7.236;2022-07-09T03:15:14;7.70;;;6.90;;
870;SDS011;422;51.280;7.236;2022-07-09T03:17:43;7.30;;;6.67;;
870;SDS011;422;51.280;7.236;2022-07-09T03:20:12;8.90;;;6.23;;
870;SDS011;422;51.280;7.236;2022-07-09T03:22:42;7.10;;;6.43;;
870;SDS011;422;51.280;7.236;2022-07-09T03:25:09;6.43;;;5.83;;
870;SDS011;422;51.280;7.236;2022-07-09T03:27:38;6.93;;;6.30;;
870;SDS011;422;51.280;7.236;2022-07-09T03:30:06;7.70;;;6.20;;
870;SDS011;422;51.280;7.236;2022-07-09T03:32:34;7.60;;;6.40;;
870;SDS011;422;51.280;7.236;2022-07-09T03:35:04;7.30;;;6.60;;
870;SDS011;422;51.280;7.236;2022-07-09T03:37:34;6.60;;;6.10;;
870;SDS011;422;51.280;7.236;2022-07-09T03:40:02;7.27;;;6.53;;
870;SDS011;422;51.280;7.236;2022-07-09T03:42:30;7.03;;;6.43;;
870;SDS011;422;51.280;7.236;2022-07-09T03:44:57;6.73;;;6.03;;
870;SDS011;422;51.280;7.236;2022-07-09T03:47:25;7.97;;;6.77;;
870;SDS011;422;51.280;7.236;2022-07-09T03:49:53;7.47;;;6.67;;
870;SDS011;422;51.280;7.236;2022-07-09T03:52:21;8.53;;;7.03;;
870;SDS011;422;51.280;7.236;2022-07-09T03:54:49;8.43;;;6.50;;
870;SDS011;422;51.280;7.236;2022-07-09T03:57:17;7.10;;;6.50;;
870;SDS011;422;51.280;7.236;2022-07-09T03:59:47;12.00;;;6.43;;
870;SDS011;422;51.280;7.236;2022-07-09T04:02:17;7.37;;;6.60;;
870;SDS011;422;51.280;7.236;2022-07-09T04:04:47;7.80;;;7.07;;
870;SDS011;422;51.280;7.236;2022-07-09T04:07:15;10.63;;;6.60;;
870;SDS011;422;51.280;7.236;2022-07-09T04:09:42;7.87;;;6.53;;
870;SDS011;422;51.280;7.236;2022-07-09T04:12:11;7.40;;;6.70;;
870;SDS011;422;51.280;7.236;2022-07-09T04:14:38;6.43;;;5.83;;
870;SDS011;422;51.280;7.236;2022-07-09T04:17:08;7.67;;;6.87;;
870;SDS011;422;51.280;7.236;2022-07-09T04:19:35;7.40;;;6.70;;
870;SDS011;422;51.280;7.236;2022-07-09T04:22:03;8.47;;;7.70;;
870;SDS011;422;51.280;7.236;2022-07-09T04:24:31;12.93;;;7.67;;
870;SDS011;422;51.280;7.236;2022-07-09T04:26:58;7.20;;;6.50;;
870;SDS011;422;51.280;7.236;2022-07-09T04:29:26;7.57;;;6.90;;
870;SDS011;422;51.280;7.236;2022-07-09T04:31:54;8.33;;;6.93;;
870;SDS011;422;51.280;7.236;2022-07-09T04:34:24;8.63;;;5.60;;
870;SDS011;422;51.280;7.236;2022-07-09T04:36:52;6.80;;;6.07;;
870;SDS011;422;51.280;7.236;2022-07-09T04:39:20;9.40;;;5.60;;
870;SDS011;422;51.280;7.236;2022-07-09T04:41:49;7.50;;;5.63;;
870;SDS011;422;51.280;7.236;2022-07-09T04:44:17;9.07;;;6.40;;
870;SDS011;422;51.280;7.236;2022-07-09T04:46:46;6.20;;;5.60;;
870;SDS011;422;51.280;7.236;2022-07-09T04:49:13;8.50;;;6.03;;
870;SDS011;422;51.280;7.236;2022-07-09T04:51:40;7.10;;;6.40;;
870;SDS011;422;51.280;7.236;2022-07-09T04:54:11;6.70;;;6.10;;
870;SDS011;422;51.280;7.236;2022-07-09T04:56:38;7.00;;;6.13;;
870;SDS011;422;51.280;7.236;2022-07-09T04:59:05;6.50;;;5.90;;
870;SDS011;422;51.280;7.236;2022-07-09T05:01:34;6.97;;;6.30;;
870;SDS011;422;51.280;7.236;2022-07-09T05:04:05;6.90;;;6.30;;
870;SDS011;422;51.280;7.236;2022-07-09T05:06:35;8.13;;;6.47;;
870;SDS011;422;51.280;7.236;2022-07-09T05:09:02;6.90;;;6.27;;
870;SDS011;422;51.280;7.236;2022-07-09T05:11:30;7.47;;;6.30;;
870;SDS011;422;51.280;7.236;2022-07-09T05:13:58;7.47;;;6.27;;
870;SDS011;422;51.280;7.236;2022-07-09T05:16:25;6.73;;;6.13;;
870;SDS011;422;51.280;7.236;2022-07-09T05:18:53;6.93;;;6.33;;
870;SDS011;422;51.280;7.236;2022-07-09T05:21:24;8.00;;;6.80;;
870;SDS011;422;51.280;7.236;2022-07-09T05:23:53;7.60;;;6.70;;
870;SDS011;422;51.280;7.236;2022-07-09T05:26:20;8.77;;;6.40;;
870;SDS011;422;51.280;7.236;2022-07-09T05:28:51;8.47;;;7.67;;
870;SDS011;422;51.280;7.236;2022-07-09T05:31:18;7.93;;;7.13;;
870;SDS011;422;51.280;7.236;2022-07-09T05:33:45;11.33;;;7.97;;
870;SDS011;422;51.280;7.236;2022-07-09T05:36:13;9.97;;;8.20;;
870;SDS011;422;51.280;7.236;2022-07-09T05:38:41;9.00;;;8.10;;
870;SDS011;422;51.280;7.236;2022-07-09T05:41:08;10.07;;;9.10;;
870;SDS011;422;51.280;7.236;2022-07-09T05:43:36;10.00;;;9.03;;
870;SDS011;422;51.280;7.236;2022-07-09T05:46:07;12.17;;;9.23;;
870;SDS011;422;51.280;7.236;2022-07-09T05:48:34;9.97;;;8.50;;
870;SDS011;422;51.280;7.236;2022-07-09T05:51:01;9.37;;;7.90;;
870;SDS011;422;51.280;7.236;2022-07-09T05:53:34;8.00;;;7.17;;
870;SDS011;422;51.280;7.236;2022-07-09T05:56:10;6.70;;;6.00;;
870;SDS011;422;51.280;7.236;2022-07-09T05:58:37;4.53;;;3.47;;
870;SDS011;422;51.280;7.236;2022-07-09T06:01:05;3.90;;;3.10;;
870;SDS011;422;51.280;7.236;2022-07-09T06:03:32;5.80;;;4.27;;
870;SDS011;422;51.280;7.236;2022-07-09T06:06:01;5.63;;;4.20;;
870;SDS011;422;51.280;7.236;2022-07-09T06:08:28;7.30;;;5.60;;
870;SDS011;422;51.280;7.236;2022-07-09T06:10:57;7.73;;;6.20;;
870;SDS011;422;51.280;7.236;2022-07-09T06:13:28;8.17;;;6.10;;
870;SDS011;422;51.280;7.236;2022-07-09T06:15:55;8.43;;;5.60;;
870;SDS011;422;51.280;7.236;2022-07-09T06:18:22;9.07;;;7.23;;
870;SDS011;422;51.280;7.236;2022-07-09T06:20:52;9.97;;;6.83;;
870;SDS011;422;51.280;7.236;2022-07-09T06:23:23;11.50;;;8.57;;
870;SDS011;422;51.280;7.236;2022-07-09T06:25:52;16.57;;;10.63;;
870;SDS011;422;51.280;7.236;2022-07-09T06:28:19;15.47;;;9.77;;
870;SDS011;422;51.280;7.236;2022-07-09T06:30:51;21.53;;;12.13;;
870;SDS011;422;51.280;7.236;2022-07-09T06:33:21;16.77;;;11.37;;
870;SDS011;422;51.280;7.236;2022-07-09T06:35:48;16.20;;;9.90;;
870;SDS011;422;51.280;7.236;2022-07-09T06:38:15;13.40;;;9.60;;
870;SDS011;422;51.280;7.236;2022-07-09T06:40:45;12.33;;;9.17;;
870;SDS011;422;51.280;7.236;2022-07-09T06:43:12;13.03;;;7.63;;
870;SDS011;422;51.280;7.236;2022-07-09T06:45:47;7.77;;;6.60;;
870;SDS011;422;51.280;7.236;2022-07-09T06:48:15;9.07;;;6.73;;
870;SDS011;422;51.280;7.236;2022-07-09T06:50:43;10.60;;;7.17;;
870;SDS011;422;51.280;7.236;2022-07-09T06:53:13;10.33;;;7.80;;
870;SDS011;422;51.280;7.236;2022-07-09T06:55:40;15.00;;;8.90;;
870;SDS011;422;51.280;7.236;2022-07-09T06:58:08;11.53;;;8.43;;
870;SDS011;422;51.280;7.236;2022-07-09T07:00:36;10.87;;;8.43;;
870;SDS011;422;51.280;7.236;2022-07-09T07:03:06;14.23;;;9.33;;
870;SDS011;422;51.280;7.236;2022-07-09T07:05:38;14.17;;;8.43;;
870;SDS011;422;51.280;7.236;2022-07-09T07:08:10;13.33;;;8.23;;
870;SDS011;422;51.280;7.236;2022-07-09T07:10:37;11.50;;;8.63;;
870;SDS011;422;51.280;7.236;2022-07-09T07:13:04;14.00;;;8.03;;
870;SDS011;422;51.280;7.236;2022-07-09T07:15:32;11.70;;;7.20;;
870;SDS011;422;51.280;7.236;2022-07-09T07:17:59;15.47;;;9.80;;
870;SDS011;422;51.280;7.236;2022-07-09T07:20:29;12.40;;;8.07;;
870;SDS011;422;51.280;7.236;2022-07-09T07:22:58;11.63;;;7.57;;
870;SDS011;422;51.280;7.236;2022-07-09T07:25:33;15.60;;;8.70;;
870;SDS011;422;51.280;7.236;2022-07-09T07:28:08;13.50;;;8.23;;
870;SDS011;422;51.280;7.236;2022-07-09T07:30:35;13.63;;;9.80;;
870;SDS011;422;51.280;7.236;2022-07-09T07:33:03;9.20;;;7.30;;
870;SDS011;422;51.280;7.236;2022-07-09T07:35:34;12.63;;;7.50;;
870;SDS011;422;51.280;7.236;2022-07-09T07:38:02;10.80;;;7.43;;
870;SDS011;422;51.280;7.236;2022-07-09T07:40:31;9.33;;;6.40;;
870;SDS011;422;51.280;7.236;2022-07-09T07:42:58;7.80;;;5.60;;
870;SDS011;422;51.280;7.236;2022-07-09T07:45:26;9.87;;;6.20;;
870;SDS011;422;51.280;7.236;2022-07-09T07:47:53;8.50;;;6.10;;
870;SDS011;422;51.280;7.236;2022-07-09T07:50:22;9.10;;;6.70;;
870;SDS011;422;51.280;7.236;2022-07-09T07:52:50;9.03;;;6.60;;
870;SDS011;422;51.280;7.236;2022-07-09T07:55:24;10.23;;;6.60;;
870;SDS011;422;51.280;7.236;2022-07-09T07:57:54;9.60;;;6.17;;
870;SDS011;422;51.280;7.236;2022-07-09T08:00:22;7.83;;;6.30;;
870;SDS011;422;51.280;7.236;2022-07-09T08:02:50;9.40;;;6.73;;
870;SDS011;422;51.280;7.236;2022-07-09T08:05:17;9.83;;;7.10;;
870;SDS011;422;51.280;7.236;2022-07-09T08:07:46;10.83;;;7.60;;
870;SDS011;422;51.280;7.236;2022-07-09T08:10:13;11.03;;;6.43;;
870;SDS011;422;51.280;7.236;2022-07-09T08:12:43;11.30;;;7.30;;
870;SDS011;422;51.280;7.236;2022-07-09T08:15:10;12.50;;;7.63;;
870;SDS011;422;51.280;7.236;2022-07-09T08:17:38;8.90;;;5.63;;
870;SDS011;422;51.280;7.236;2022-07-09T08:20:06;9.60;;;6.90;;
870;SDS011;422;51.280;7.236;2022-07-09T08:22:37;9.60;;;7.93;;
870;SDS011;422;51.280;7.236;2022-07-09T08:25:07;8.77;;;6.60;;
870;SDS011;422;51.280;7.236;2022-07-09T08:27:35;7.50;;;6.30;;
870;SDS011;422;51.280;7.236;2022-07-09T08:30:04;8.53;;;6.03;;
870;SDS011;422;51.280;7.236;2022-07-09T08:32:34;7.97;;;5.67;;
870;SDS011;422;51.280;7.236;2022-07-09T08:35:06;5.17;;;4.50;;
870;SDS011;422;51.280;7.236;2022-07-09T08:37:37;7.47;;;4.53;;
870;SDS011;422;51.280;7.236;2022-07-09T08:40:05;5.20;;;4.03;;
870;SDS011;422;51.280;7.236;2022-07-09T08:42:33;7.07;;;4.63;;
870;SDS011;422;51.280;7.236;2022-07-09T08:45:00;4.87;;;3.70;;
870;SDS011;422;51.280;7.236;2022-07-09T08:47:30;5.83;;;4.50;;
870;SDS011;422;51.280;7.236;2022-07-09T08:49:57;7.30;;;4.67;;
870;SDS011;422;51.280;7.236;2022-07-09T08:52:26;5.13;;;4.67;;
870;SDS011;422;51.280;7.236;2022-07-09T08:54:54;6.37;;;4.50;;
870;SDS011;422;51.280;7.236;2022-07-09T08:57:22;4.30;;;3.73;;
870;SDS011;422;51.280;7.236;2022-07-09T08:59:49;4.63;;;3.60;;
870;SDS011;422;51.280;7.236;2022-07-09T09:02:17;3.67;;;3.33;;
870;SDS011;422;51.280;7.236;2022-07-09T09:04:53;4.93;;;4.07;;
870;SDS011;422;51.280;7.236;2022-07-09T09:07:22;5.30;;;3.40;;
870;SDS011;422;51.280;7.236;2022-07-09T09:09:52;5.20;;;4.70;;
870;SDS011;422;51.280;7.236;2022-07-09T09:12:26;4.33;;;3.80;;
870;SDS011;422;51.280;7.236;2022-07-09T09:14:54;5.23;;;3.73;;
870;SDS011;422;51.280;7.236;2022-07-09T09:17:23;4.23;;;3.83;;
870;SDS011;422;51.280;7.236;2022-07-09T09:19:59;5.43;;;4.23;;
870;SDS011;422;51.280;7.236;2022-07-09T09:22:43;4.03;;;3.17;;
870;SDS011;422;51.280;7.236;2022-07-09T09:25:15;4.80;;;3.57;;
870;SDS011;422;51.280;7.236;2022-07-09T09:27:52;3.67;;;3.37;;
870;SDS011;422;51.280;7.236;2022-07-09T09:30:20;5.53;;;4.23;;
870;SDS011;422;51.280;7.236;2022-07-09T09:32:57;5.67;;;3.67;;
870;SDS011;422;51.280;7.236;2022-07-09T09:35:27;6.57;;;4.33;;
870;SDS011;422;51.280;7.236;2022-07-09T09:37:59;6.40;;;4.77;;
870;SDS011;422;51.280;7.236;2022-07-09T09:40:32;3.90;;;3.50;;
870;SDS011;422;51.280;7.236;2022-07-09T09:43:02;4.93;;;4.00;;
870;SDS011;422;51.280;7.236;2022-07-09T09:45:35;8.17;;;5.00;;
870;SDS011;422;51.280;7.236;2022-07-09T09:48:03;5.23;;;3.90;;
870;SDS011;422;51.280;7.236;2022-07-09T09:50:34;4.40;;;3.57;;
870;SDS011;422;51.280;7.236;2022-07-09T09:53:02;5.13;;;3.93;;
870;SDS011;422;51.280;7.236;2022-07-09T09:55:33;4.53;;;3.97;;
870;SDS011;422;51.280;7.236;2022-07-09T09:58:08;5.60;;;4.27;;
870;SDS011;422;51.280;7.236;2022-07-09T10:00:53;4.50;;;3.67;;
870;SDS011;422;51.280;7.236;2022-07-09T10:03:20;5.70;;;4.73;;
870;SDS011;422;51.280;7.236;2022-07-09T10:05:50;6.10;;;4.57;;
870;SDS011;422;51.280;7.236;2022-07-09T10:08:19;4.13;;;3.73;;
870;SDS011;422;51.280;7.236;2022-07-09T10:10:49;4.83;;;3.83;;
870;SDS011;422;51.280;7.236;2022-07-09T10:13:19;3.47;;;3.17;;
870;SDS011;422;51.280;7.236;2022-07-09T10:15:47;4.63;;;3.63;;
870;SDS011;422;51.280;7.236;2022-07-09T10:18:16;4.33;;;3.07;;
870;SDS011;422;51.280;7.236;2022-07-09T10:20:44;3.70;;;3.27;;
870;SDS011;422;51.280;7.236;2022-07-09T10:23:23;4.20;;;3.50;;
870;SDS011;422;51.280;7.236;2022-07-09T10:25:52;4.07;;;3.20;;
870;SDS011;422;51.280;7.236;2022-07-09T10:28:21;3.83;;;3.53;;
870;SDS011;422;51.280;7.236;2022-07-09T10:30:50;5.50;;;3.13;;
870;SDS011;422;51.280;7.236;2022-07-09T10:33:23;3.93;;;2.97;;
870;SDS011;422;51.280;7.236;2022-07-09T10:36:09;4.33;;;3.50;;
870;SDS011;422;51.280;7.236;2022-07-09T10:38:51;5.77;;;3.57;;
870;SDS011;422;51.280;7.236;2022-07-09T10:41:24;4.80;;;3.00;;
870;SDS011;422;51.280;7.236;2022-07-09T10:43:53;5.20;;;3.57;;
870;SDS011;422;51.280;7.236;2022-07-09T10:46:24;4.33;;;3.90;;
870;SDS011;422;51.280;7.236;2022-07-09T10:48:54;4.00;;;3.53;;
870;SDS011;422;51.280;7.236;2022-07-09T10:51:30;5.60;;;3.50;;
870;SDS011;422;51.280;7.236;2022-07-09T10:54:05;4.07;;;3.30;;
870;SDS011;422;51.280;7.236;2022-07-09T10:56:44;3.30;;;3.00;;
870;SDS011;422;51.280;7.236;2022-07-09T10:59:17;2.67;;;2.47;;
870;SDS011;422;51.280;7.236;2022-07-09T11:01:46;4.00;;;3.00;;
870;SDS011;422;51.280;7.236;2022-07-09T11:04:26;3.07;;;2.83;;
870;SDS011;422;51.280;7.236;2022-07-09T11:06:54;3.00;;;2.80;;
870;SDS011;422;51.280;7.236;2022-07-09T11:09:26;2.70;;;2.50;;
870;SDS011;422;51.280;7.236;2022-07-09T11:11:55;3.37;;;2.83;;
870;SDS011;422;51.280;7.236;2022-07-09T11:14:25;3.13;;;2.60;;
870;SDS011;422;51.280;7.236;2022-07-09T11:17:08;3.57;;;3.27;;
870;SDS011;422;51.280;7.236;2022-07-09T11:19:44;3.73;;;3.30;;
870;SDS011;422;51.280;7.236;2022-07-09T11:22:11;3.00;;;2.80;;
870;SDS011;422;51.280;7.236;2022-07-09T11:24:43;3.20;;;2.77;;
870;SDS011;422;51.280;7.236;2022-07-09T11:27:10;3.47;;;3.00;;
870;SDS011;422;51.280;7.236;2022-07-09T11:29:46;5.17;;;2.60;;
870;SDS011;422;51.280;7.236;2022-07-09T11:32:17;3.23;;;2.93;;
870;SDS011;422;51.280;7.236;2022-07-09T11:34:53;2.97;;;2.73;;
870;SDS011;422;51.280;7.236;2022-07-09T11:37:24;2.90;;;2.67;;
870;SDS011;422;51.280;7.236;2022-07-09T11:39:56;4.23;;;3.40;;
870;SDS011;422;51.280;7.236;2022-07-09T11:42:23;4.13;;;2.80;;
870;SDS011;422;51.280;7.236;2022-07-09T11:44:59;2.87;;;2.67;;
870;SDS011;422;51.280;7.236;2022-07-09T11:47:36;2.90;;;2.70;;
870;SDS011;422;51.280;7.236;2022-07-09T11:50:05;2.80;;;2.60;;
870;SDS011;422;51.280;7.236;2022-07-09T11:52:36;2.93;;;2.60;;
870;SDS011;422;51.280;7.236;2022-07-09T11:55:16;2.93;;;2.50;;
870;SDS011;422;51.280;7.236;2022-07-09T11:57:50;2.90;;;2.70;;
870;SDS011;422;51.280;7.236;2022-07-09T12:00:20;2.80;;;2.40;;
870;SDS011;422;51.280;7.236;2022-07-09T12:02:49;3.00;;;2.80;;
870;SDS011;422;51.280;7.236;2022-07-09T12:05:24;3.13;;;2.93;;
870;SDS011;422;51.280;7.236;2022-07-09T12:07:56;3.33;;;2.70;;
870;SDS011;422;51.280;7.236;2022-07-09T12:10:33;2.63;;;2.43;;
870;SDS011;422;51.280;7.236;2022-07-09T12:13:06;3.30;;;2.80;;
870;SDS011;422;51.280;7.236;2022-07-09T12:15:36;2.90;;;2.70;;
870;SDS011;422;51.280;7.236;2022-07-09T12:18:08;3.07;;;2.77;;
870;SDS011;422;51.280;7.236;2022-07-09T12:20:39;3.47;;;3.17;;
870;SDS011;422;51.280;7.236;2022-07-09T12:23:07;3.13;;;2.93;;
870;SDS011;422;51.280;7.236;2022-07-09T12:25:48;3.10;;;2.77;;
870;SDS011;422;51.280;7.236;2022-07-09T12:28:25;3.10;;;2.90;;
870;SDS011;422;51.280;7.236;2022-07-09T12:30:54;3.30;;;3.10;;
870;SDS011;422;51.280;7.236;2022-07-09T12:33:49;3.37;;;3.17;;
870;SDS011;422;51.280;7.236;2022-07-09T12:36:19;3.93;;;3.60;;
870;SDS011;422;51.280;7.236;2022-07-09T12:38:55;6.90;;;3.50;;
870;SDS011;422;51.280;7.236;2022-07-09T12:41:37;4.47;;;2.70;;
870;SDS011;422;51.280;7.236;2022-07-09T12:44:09;3.43;;;3.10;;
870;SDS011;422;51.280;7.236;2022-07-09T12:46:36;4.03;;;3.67;;
870;SDS011;422;51.280;7.236;2022-07-09T12:49:14;3.77;;;3.47;;
870;SDS011;422;51.280;7.236;2022-07-09T12:51:46;4.07;;;3.20;;
870;SDS011;422;51.280;7.236;2022-07-09T12:54:18;4.13;;;3.73;;
870;SDS011;422;51.280;7.236;2022-07-09T12:56:55;5.30;;;4.13;;
870;SDS011;422;51.280;7.236;2022-07-09T12:59:29;10.50;;;9.40;;
870;SDS011;422;51.280;7.236;2022-07-09T13:01:57;6.20;;;4.47;;
870;SDS011;422;51.280;7.236;2022-07-09T13:04:24;6.90;;;6.20;;
870;SDS011;422;51.280;7.236;2022-07-09T13:06:51;5.73;;;5.23;;
870;SDS011;422;51.280;7.236;2022-07-09T13:09:19;8.63;;;5.83;;
870;SDS011;422;51.280;7.236;2022-07-09T13:11:46;7.90;;;7.20;;
870;SDS011;422;51.280;7.236;2022-07-09T13:14:16;6.53;;;5.93;;
870;SDS011;422;51.280;7.236;2022-07-09T13:16:43;9.27;;;8.47;;
870;SDS011;422;51.280;7.236;2022-07-09T13:19:10;7.10;;;5.40;;
870;SDS011;422;51.280;7.236;2022-07-09T13:21:38;8.83;;;7.93;;
870;SDS011;422;51.280;7.236;2022-07-09T13:24:05;8.80;;;7.53;;
870;SDS011;422;51.280;7.236;2022-07-09T13:26:32;7.97;;;7.27;;
870;SDS011;422;51.280;7.236;2022-07-09T13:29:00;10.03;;;8.70;;
870;SDS011;422;51.280;7.236;2022-07-09T13:31:29;21.63;;;13.70;;
870;SDS011;422;51.280;7.236;2022-07-09T13:33:58;13.80;;;12.50;;
870;SDS011;422;51.280;7.236;2022-07-09T13:36:25;13.97;;;12.87;;
870;SDS011;422;51.280;7.236;2022-07-09T13:38:52;14.27;;;13.07;;
870;SDS011;422;51.280;7.236;2022-07-09T13:41:23;13.37;;;12.00;;
870;SDS011;422;51.280;7.236;2022-07-09T13:43:53;12.40;;;11.20;;
870;SDS011;422;51.280;7.236;2022-07-09T13:46:24;12.87;;;11.70;;
870;SDS011;422;51.280;7.236;2022-07-09T13:48:55;13.50;;;12.40;;
870;SDS011;422;51.280;7.236;2022-07-09T13:51:23;12.20;;;11.10;;
870;SDS011;422;51.280;7.236;2022-07-09T13:53:52;12.70;;;11.60;;
870;SDS011;422;51.280;7.236;2022-07-09T13:56:22;10.07;;;9.27;;
870;SDS011;422;51.280;7.236;2022-07-09T13:58:52;9.40;;;8.67;;
870;SDS011;422;51.280;7.236;2022-07-09T14:01:20;8.30;;;7.60;;
870;SDS011;422;51.280;7.236;2022-07-09T14:03:47;9.30;;;8.40;;
870;SDS011;422;51.280;7.236;2022-07-09T14:06:18;7.20;;;6.60;;
870;SDS011;422;51.280;7.236;2022-07-09T14:08:46;6.87;;;6.27;;
870;SDS011;422;51.280;7.236;2022-07-09T14:11:13;6.83;;;6.33;;
870;SDS011;422;51.280;7.236;2022-07-09T14:13:41;6.37;;;5.50;;
870;SDS011;422;51.280;7.236;2022-07-09T14:16:09;6.57;;;5.97;;
870;SDS011;422;51.280;7.236;2022-07-09T14:18:36;7.73;;;5.80;;
870;SDS011;422;51.280;7.236;2022-07-09T14:21:03;5.80;;;5.40;;
870;SDS011;422;51.280;7.236;2022-07-09T14:23:33;4.90;;;4.40;;
870;SDS011;422;51.280;7.236;2022-07-09T14:26:03;5.70;;;5.20;;
870;SDS011;422;51.280;7.236;2022-07-09T14:28:35;4.40;;;4.10;;
870;SDS011;422;51.280;7.236;2022-07-09T14:31:02;4.83;;;4.43;;
870;SDS011;422;51.280;7.236;2022-07-09T14:33:29;4.90;;;4.50;;
870;SDS011;422;51.280;7.236;2022-07-09T14:35:57;6.40;;;5.80;;
870;SDS011;422;51.280;7.236;2022-07-09T14:38:27;6.10;;;5.50;;
870;SDS011;422;51.280;7.236;2022-07-09T14:40:57;5.83;;;5.33;;
870;SDS011;422;51.280;7.236;2022-07-09T14:43:24;5.53;;;5.03;;
870;SDS011;422;51.280;7.236;2022-07-09T14:45:53;6.30;;;5.70;;
870;SDS011;422;51.280;7.236;2022-07-09T14:48:22;8.57;;;5.70;;
870;SDS011;422;51.280;7.236;2022-07-09T14:50:50;6.53;;;5.93;;
870;SDS011;422;51.280;7.236;2022-07-09T14:53:22;6.70;;;6.10;;
870;SDS011;422;51.280;7.236;2022-07-09T14:55:49;8.23;;;6.07;;
870;SDS011;422;51.280;7.236;2022-07-09T14:58:18;6.60;;;6.00;;
870;SDS011;422;51.280;7.236;2022-07-09T15:00:47;6.90;;;6.30;;
870;SDS011;422;51.280;7.236;2022-07-09T15:03:19;8.10;;;6.00;;
870;SDS011;422;51.280;7.236;2022-07-09T15:05:54;5.93;;;5.37;;
870;SDS011;422;51.280;7.236;2022-07-09T15:08:21;5.40;;;4.90;;
870;SDS011;422;51.280;7.236;2022-07-09T15:10:52;4.50;;;4.10;;
870;SDS011;422;51.280;7.236;2022-07-09T15:13:23;4.27;;;3.97;;
870;SDS011;422;51.280;7.236;2022-07-09T15:16:00;4.27;;;3.87;;
870;SDS011;422;51.280;7.236;2022-07-09T15:18:28;4.33;;;4.00;;
870;SDS011;422;51.280;7.236;2022-07-09T15:20:55;4.03;;;3.70;;
870;SDS011;422;51.280;7.236;2022-07-09T15:23:26;3.70;;;3.40;;
870;SDS011;422;51.280;7.236;2022-07-09T15:25:56;3.27;;;3.07;;
870;SDS011;422;51.280;7.236;2022-07-09T15:28:29;3.23;;;2.93;;
870;SDS011;422;51.280;7.236;2022-07-09T15:30:58;3.50;;;3.23;;
870;SDS011;422;51.280;7.236;2022-07-09T15:33:26;3.63;;;2.93;;
870;SDS011;422;51.280;7.236;2022-07-09T15:35:53;3.87;;;3.37;;
870;SDS011;422;51.280;7.236;2022-07-09T15:38:22;2.97;;;2.67;;
870;SDS011;422;51.280;7.236;2022-07-09T15:40:49;3.23;;;3.03;;
870;SDS011;422;51.280;7.236;2022-07-09T15:43:18;3.60;;;3.30;;
870;SDS011;422;51.280;7.236;2022-07-09T15:45:47;3.03;;;2.77;;
870;SDS011;422;51.280;7.236;2022-07-09T15:48:14;3.07;;;2.80;;
870;SDS011;422;51.280;7.236;2022-07-09T15:50:47;3.30;;;3.00;;
870;SDS011;422;51.280;7.236;2022-07-09T15:53:14;3.50;;;3.20;;
870;SDS011;422;51.280;7.236;2022-07-09T15:55:44;5.10;;;3.70;;
870;SDS011;422;51.280;7.236;2022-07-09T15:58:12;3.80;;;3.50;;